sensor_id;sensor_type;location;lat;lon;timestamp;pressure;altitude;pressure_sealevel;temperature;humidity
7832;BME280;3961;42.058;25.586;2023-03-01T00:01:16;62931.28;;;6.40;100.00
7832;BME280;3961;42.058;25.586;2023-03-01T00:03:42;62900.81;;;6.13;100.00
7832;BME280;3961;42.058;25.586;2023-03-01T00:06:09;62911.38;;;6.25;100.00
7832;BME280;3961;42.058;25.586;2023-03-01T00:08:35;62893.91;;;6.07;100.00
7832;BME280;3961;42.058;25.586;2023-03-01T00:11:09;62905.31;;;6.22;100.00
7832;BME280;3961;42.058;25.586;2023-03-01T00:13:35;62889.31;;;6.03;100.00
7832;BME280;3961;42.058;25.586;2023-03-01T00:16:06;62892.78;;;6.06;100.00
7832;BME280;3961;42.058;25.586;2023-03-01T00:18:32;62904.84;;;6.17;100.00
7832;BME280;3961;42.058;25.586;2023-03-01T00:20:58;62902.44;;;6.19;100.00
7832;BME280;3961;42.058;25.586;2023-03-01T00:23:24;62869.44;;;5.88;100.00
7832;BME280;3961;42.058;25.586;2023-03-01T00:25:50;62901.63;;;6.16;100.00
7832;BME280;3961;42.058;25.586;2023-03-01T00:28:16;62946.31;;;6.49;100.00
7832;BME280;3961;42.058;25.586;2023-03-01T00:30:42;62910.69;;;6.17;100.00
7832;BME280;3961;42.058;25.586;2023-03-01T00:33:08;62913.44;;;6.24;100.00
7832;BME280;3961;42.058;25.586;2023-03-01T00:35:33;62910.91;;;6.20;100.00
7832;BME280;3961;42.058;25.586;2023-03-01T00:37:59;62897.94;;;6.11;100.00
7832;BME280;3961;42.058;25.586;2023-03-01T00:40:26;62907.69;;;6.19;100.00
7832;BME280;3961;42.058;25.586;2023-03-01T00:42:52;62903.13;;;6.15;100.00
7832;BME280;3961;42.058;25.586;2023-03-01T00:45:17;62902.53;;;6.15;100.00
7832;BME280;3961;42.058;25.586;2023-03-01T00:47:43;62890.72;;;6.06;100.00
7832;BME280;3961;42.058;25.586;2023-03-01T00:50:10;62903.13;;;6.15;100.00
7832;BME280;3961;42.058;25.586;2023-03-01T00:52:36;62914.13;;;6.20;100.00
7832;BME280;3961;42.058;25.586;2023-03-01T00:55:02;62894.50;;;6.07;100.00
7832;BME280;3961;42.058;25.586;2023-03-01T00:57:27;62907.47;;;6.17;100.00
7832;BME280;3961;42.058;25.586;2023-03-01T00:59:53;62918.03;;;6.28;100.00
7832;BME280;3961;42.058;25.586;2023-03-01T01:02:19;62911.38;;;6.25;100.00
7832;BME280;3961;42.058;25.586;2023-03-01T01:04:45;62920.91;;;6.31;100.00
7832;BME280;3961;42.058;25.586;2023-03-01T01:07:11;62906.13;;;6.25;100.00
7832;BME280;3961;42.058;25.586;2023-03-01T01:09:36;62915.16;;;6.26;100.00
7832;BME280;3961;42.058;25.586;2023-03-01T01:12:03;62906.69;;;6.25;100.00
7832;BME280;3961;42.058;25.586;2023-03-01T01:14:29;62912.63;;;6.21;100.00
7832;BME280;3961;42.058;25.586;2023-03-01T01:16:54;62935.63;;;6.42;100.00
7832;BME280;3961;42.058;25.586;2023-03-01T01:19:20;62909.09;;;6.23;100.00
7832;BME280;3961;42.058;25.586;2023-03-01T01:21:46;62913.44;;;6.24;100.00
7832;BME280;3961;42.058;25.586;2023-03-01T01:24:13;62916.31;;;6.27;100.00
7832;BME280;3961;42.058;25.586;2023-03-01T01:26:39;62920.09;;;6.28;100.00
7832;BME280;3961;42.058;25.586;2023-03-01T01:29:05;62922.66;;;6.32;100.00
7832;BME280;3961;42.058;25.586;2023-03-01T01:31:32;62881.84;;;5.96;100.00
7832;BME280;3961;42.058;25.586;2023-03-01T01:33:59;62922.06;;;6.32;100.00
7832;BME280;3961;42.058;25.586;2023-03-01T01:36:25;62921.75;;;6.34;100.00
7832;BME280;3961;42.058;25.586;2023-03-01T01:38:50;62909.09;;;6.23;100.00
7832;BME280;3961;42.058;25.586;2023-03-01T01:41:17;62926.44;;;6.33;100.00
7832;BME280;3961;42.058;25.586;2023-03-01T01:46:37;62929.22;;;6.40;100.00
7832;BME280;3961;42.058;25.586;2023-03-01T01:49:06;62938.16;;;6.46;100.00
7832;BME280;3961;42.058;25.586;2023-03-01T01:51:36;62924.13;;;6.31;100.00
7832;BME280;3961;42.058;25.586;2023-03-01T01:54:10;62941.97;;;6.47;100.00
7832;BME280;3961;42.058;25.586;2023-03-01T01:56:40;62924.84;;;6.39;100.00
7832;BME280;3961;42.058;25.586;2023-03-01T01:59:09;62930.94;;;6.42;100.00
7832;BME280;3961;42.058;25.586;2023-03-01T02:01:36;62938.75;;;6.47;100.00
7832;BME280;3961;42.058;25.586;2023-03-01T02:04:02;62931.59;;;6.38;100.00
7832;BME280;3961;42.058;25.586;2023-03-01T02:06:31;62939.91;;;6.48;100.00
7832;BME280;3961;42.058;25.586;2023-03-01T02:09:22;62941.63;;;6.49;100.00
7832;BME280;3961;42.058;25.586;2023-03-01T02:11:47;62951.94;;;6.58;100.00
7832;BME280;3961;42.058;25.586;2023-03-01T02:14:15;62942.53;;;6.48;100.00
7832;BME280;3961;42.058;25.586;2023-03-01T02:16:41;62929.78;;;6.41;100.00
7832;BME280;3961;42.058;25.586;2023-03-01T02:19:09;62946.78;;;6.54;100.00
7832;BME280;3961;42.058;25.586;2023-03-01T02:26:50;62924.38;;;6.34;100.00
7832;BME280;3961;42.058;25.586;2023-03-01T02:29:18;62923.69;;;6.38;100.00
7832;BME280;3961;42.058;25.586;2023-03-01T02:31:43;62942.41;;;6.52;100.00
7832;BME280;3961;42.058;25.586;2023-03-01T02:34:18;62941.63;;;6.49;100.00
7832;BME280;3961;42.058;25.586;2023-03-01T02:36:54;62957.13;;;6.63;100.00
7832;BME280;3961;42.058;25.586;2023-03-01T02:39:34;62956.78;;;6.65;100.00
7832;BME280;3961;42.058;25.586;2023-03-01T02:42:02;62971.84;;;6.73;100.00
7832;BME280;3961;42.058;25.586;2023-03-01T02:44:29;62961.16;;;6.66;100.00
7832;BME280;3961;42.058;25.586;2023-03-01T02:46:56;62950.22;;;6.57;100.00
7832;BME280;3961;42.058;25.586;2023-03-01T02:54:31;62939.09;;;6.45;100.00
7832;BME280;3961;42.058;25.586;2023-03-01T02:56:59;62944.47;;;6.52;100.00
7832;BME280;3961;42.058;25.586;2023-03-01T02:59:30;62949.66;;;6.56;100.00
7832;BME280;3961;42.058;25.586;2023-03-01T03:01:56;62944.25;;;6.49;100.00
7832;BME280;3961;42.058;25.586;2023-03-01T03:04:22;62934.38;;;6.45;100.00
7832;BME280;3961;42.058;25.586;2023-03-01T03:06:50;62945.88;;;6.55;100.00
7832;BME280;3961;42.058;25.586;2023-03-01T03:09:16;62923.78;;;6.33;100.00
7832;BME280;3961;42.058;25.586;2023-03-01T03:11:42;62917.72;;;6.30;100.00
7832;BME280;3961;42.058;25.586;2023-03-01T03:14:09;62922.06;;;6.32;100.00
7832;BME280;3961;42.058;25.586;2023-03-01T03:16:46;62865.19;;;5.82;100.00
7832;BME280;3961;42.058;25.586;2023-03-01T03:19:13;62915.16;;;6.26;100.00
7832;BME280;3961;42.058;25.586;2023-03-01T03:21:39;62911.72;;;6.23;100.00
7832;BME280;3961;42.058;25.586;2023-03-01T03:24:04;62907.38;;;6.21;100.00
7832;BME280;3961;42.058;25.586;2023-03-01T03:26:30;62902.78;;;6.17;100.00
7832;BME280;3961;42.058;25.586;2023-03-01T03:28:56;62902.53;;;6.15;100.00
7832;BME280;3961;42.058;25.586;2023-03-01T03:31:22;62900.16;;;6.17;100.00
7832;BME280;3961;42.058;25.586;2023-03-01T03:33:48;62909.19;;;6.18;100.00
7832;BME280;3961;42.058;25.586;2023-03-01T03:36:18;62909.66;;;6.23;100.00
7832;BME280;3961;42.058;25.586;2023-03-01T03:38:45;62902.22;;;6.17;100.00
7832;BME280;3961;42.058;25.586;2023-03-01T03:41:11;62913.44;;;6.24;100.00
7832;BME280;3961;42.058;25.586;2023-03-01T03:46:21;62898.53;;;6.11;100.00
7832;BME280;3961;42.058;25.586;2023-03-01T03:49:05;62818.44;;;5.38;100.00
7832;BME280;3961;42.058;25.586;2023-03-01T03:51:30;62889.31;;;6.03;100.00
7832;BME280;3961;42.058;25.586;2023-03-01T03:53:56;62897.94;;;6.11;100.00
7832;BME280;3961;42.058;25.586;2023-03-01T03:56:22;62894.16;;;6.10;100.00
7832;BME280;3961;42.058;25.586;2023-03-01T03:59:09;62900.47;;;6.15;100.00
7832;BME280;3961;42.058;25.586;2023-03-01T04:01:36;62901.63;;;6.16;100.00
7832;BME280;3961;42.058;25.586;2023-03-01T04:04:02;62891.63;;;6.05;100.00
7832;BME280;3961;42.058;25.586;2023-03-01T04:06:29;62887.59;;;6.01;100.00
7832;BME280;3961;42.058;25.586;2023-03-01T04:08:55;62891.06;;;6.04;100.00
7832;BME280;3961;42.058;25.586;2023-03-01T04:11:25;62887.59;;;6.01;100.00
7832;BME280;3961;42.058;25.586;2023-03-01T04:13:55;62880.69;;;5.95;100.00
7832;BME280;3961;42.058;25.586;2023-03-01T04:16:22;62880.13;;;5.95;100.00
7832;BME280;3961;42.058;25.586;2023-03-01T04:18:47;62883.00;;;5.97;100.00
7832;BME280;3961;42.058;25.586;2023-03-01T04:21:13;62862.78;;;5.84;100.00
7832;BME280;3961;42.058;25.586;2023-03-01T04:23:39;62860.59;;;5.78;100.00
7832;BME280;3961;42.058;25.586;2023-03-01T04:26:06;62844.75;;;5.66;100.00
7832;BME280;3961;42.058;25.586;2023-03-01T04:28:39;62863.38;;;5.85;100.00
7832;BME280;3961;42.058;25.586;2023-03-01T04:31:11;62841.63;;;5.61;100.00
7832;BME280;3961;42.058;25.586;2023-03-01T04:33:42;62884.81;;;5.94;100.00
7832;BME280;3961;42.058;25.586;2023-03-01T04:36:08;62888.75;;;6.02;100.00
7832;BME280;3961;42.058;25.586;2023-03-01T04:38:35;62891.63;;;6.05;100.00
7832;BME280;3961;42.058;25.586;2023-03-01T04:41:06;62888.75;;;6.02;100.00
7832;BME280;3961;42.058;25.586;2023-03-01T04:43:33;62886.13;;;6.02;100.00
7832;BME280;3961;42.058;25.586;2023-03-01T04:46:03;62894.50;;;6.07;100.00
7832;BME280;3961;42.058;25.586;2023-03-01T04:48:30;62879.56;;;5.94;100.00
7832;BME280;3961;42.058;25.586;2023-03-01T04:50:58;62880.13;;;5.95;100.00
7832;BME280;3961;42.058;25.586;2023-03-01T04:53:24;62887.59;;;6.01;100.00
7832;BME280;3961;42.058;25.586;2023-03-01T04:55:50;62887.34;;;5.99;100.00
7832;BME280;3961;42.058;25.586;2023-03-01T04:58:15;62893.09;;;6.04;100.00
7832;BME280;3961;42.058;25.586;2023-03-01T05:00:41;62877.81;;;5.93;100.00
7832;BME280;3961;42.058;25.586;2023-03-01T05:03:08;62872.91;;;5.91;100.00
7832;BME280;3961;42.058;25.586;2023-03-01T05:05:36;62870.84;;;5.91;100.00
7832;BME280;3961;42.058;25.586;2023-03-01T05:08:04;62852.78;;;5.73;100.00
7832;BME280;3961;42.058;25.586;2023-03-01T05:10:32;62872.06;;;5.88;100.00
7832;BME280;3961;42.058;25.586;2023-03-01T05:13:00;62867.47;;;5.84;100.00
7832;BME280;3961;42.058;25.586;2023-03-01T05:15:27;62864.28;;;5.83;100.00
7832;BME280;3961;42.058;25.586;2023-03-01T05:17:54;62865.75;;;5.82;100.00
7832;BME280;3961;42.058;25.586;2023-03-01T05:20:21;62874.03;;;5.92;100.00
7832;BME280;3961;42.058;25.586;2023-03-01T05:22:51;62879.78;;;5.97;100.00
7832;BME280;3961;42.058;25.586;2023-03-01T05:25:17;62872.06;;;5.88;100.00
7832;BME280;3961;42.058;25.586;2023-03-01T05:27:43;62875.19;;;5.93;100.00
7832;BME280;3961;42.058;25.586;2023-03-01T05:30:09;62881.28;;;5.96;100.00
7832;BME280;3961;42.058;25.586;2023-03-01T05:32:44;62885.06;;;5.97;100.00
7832;BME280;3961;42.058;25.586;2023-03-01T05:35:15;62887.50;;;6.06;100.00
7832;BME280;3961;42.058;25.586;2023-03-01T05:37:46;62882.75;;;5.95;100.00
7832;BME280;3961;42.058;25.586;2023-03-01T05:40:22;62888.41;;;6.04;100.00
7832;BME280;3961;42.058;25.586;2023-03-01T05:42:52;62892.19;;;6.05;100.00
7832;BME280;3961;42.058;25.586;2023-03-01T05:45:18;62869.75;;;5.86;100.00
7832;BME280;3961;42.058;25.586;2023-03-01T05:47:47;62883.00;;;5.97;100.00
7832;BME280;3961;42.058;25.586;2023-03-01T05:50:15;62888.41;;;6.04;100.00
7832;BME280;3961;42.058;25.586;2023-03-01T05:52:57;62880.69;;;5.95;100.00
7832;BME280;3961;42.058;25.586;2023-03-01T05:55:23;62882.66;;;5.99;100.00
7832;BME280;3961;42.058;25.586;2023-03-01T05:57:48;62889.09;;;6.00;100.00
7832;BME280;3961;42.058;25.586;2023-03-01T06:00:17;62888.41;;;6.04;100.00
7832;BME280;3961;42.058;25.586;2023-03-01T06:02:43;62893.69;;;6.04;100.00
7832;BME280;3961;42.058;25.586;2023-03-01T06:05:10;62882.44;;;5.97;100.00
7832;BME280;3961;42.058;25.586;2023-03-01T06:07:36;62891.06;;;6.04;100.00
7832;BME280;3961;42.058;25.586;2023-03-01T06:10:04;62894.00;;;6.02;100.00
7832;BME280;3961;42.058;25.586;2023-03-01T06:12:34;62895.31;;;6.11;100.00
7832;BME280;3961;42.058;25.586;2023-03-01T06:15:00;62895.06;;;6.08;100.00
7832;BME280;3961;42.058;25.586;2023-03-01T06:17:28;62902.88;;;6.13;100.00
7832;BME280;3961;42.058;25.586;2023-03-01T06:19:54;62904.84;;;6.17;100.00
7832;BME280;3961;42.058;25.586;2023-03-01T06:22:19;62886.44;;;6.00;100.00
7832;BME280;3961;42.058;25.586;2023-03-01T06:24:45;62891.06;;;6.04;100.00
7832;BME280;3961;42.058;25.586;2023-03-01T06:27:11;62897.63;;;6.13;100.00
7832;BME280;3961;42.058;25.586;2023-03-01T06:29:36;62893.69;;;6.04;100.00
7832;BME280;3961;42.058;25.586;2023-03-01T06:32:03;62896.47;;;6.12;100.00
7832;BME280;3961;42.058;25.586;2023-03-01T06:34:28;62890.72;;;6.06;100.00
7832;BME280;3961;42.058;25.586;2023-03-01T06:36:54;62899.91;;;6.15;100.00
7832;BME280;3961;42.058;25.586;2023-03-01T06:39:19;62901.16;;;6.11;100.00
7832;BME280;3961;42.058;25.586;2023-03-01T06:41:45;62902.22;;;6.17;100.00
7832;BME280;3961;42.058;25.586;2023-03-01T06:44:11;62904.84;;;6.17;100.00
7832;BME280;3961;42.058;25.586;2023-03-01T06:46:36;62899.19;;;6.07;100.00
7832;BME280;3961;42.058;25.586;2023-03-01T06:49:02;62909.19;;;6.18;100.00
7832;BME280;3961;42.058;25.586;2023-03-01T06:51:32;62902.31;;;6.12;100.00
7832;BME280;3961;42.058;25.586;2023-03-01T06:53:58;62913.78;;;6.22;100.00
7832;BME280;3961;42.058;25.586;2023-03-01T06:56:24;62917.47;;;6.28;100.00
7832;BME280;3961;42.058;25.586;2023-03-01T06:58:50;62920.00;;;6.32;100.00
7832;BME280;3961;42.058;25.586;2023-03-01T07:01:16;62908.59;;;6.18;100.00
7832;BME280;3961;42.058;25.586;2023-03-01T07:03:41;62904.84;;;6.17;100.00
7832;BME280;3961;42.058;25.586;2023-03-01T07:06:09;62904.16;;;6.21;100.00
7832;BME280;3961;42.058;25.586;2023-03-01T07:08:35;62921.84;;;6.29;100.00
7832;BME280;3961;42.058;25.586;2023-03-01T07:11:00;62920.59;;;6.33;100.00
7832;BME280;3961;42.058;25.586;2023-03-01T07:13:27;62928.41;;;6.37;100.00
7832;BME280;3961;42.058;25.586;2023-03-01T07:15:53;62931.28;;;6.40;100.00
7832;BME280;3961;42.058;25.586;2023-03-01T07:18:18;62964.84;;;6.72;100.00
7832;BME280;3961;42.058;25.586;2023-03-01T07:20:44;62938.16;;;6.46;100.00
7832;BME280;3961;42.058;25.586;2023-03-01T07:23:10;62931.28;;;6.40;100.00
7832;BME280;3961;42.058;25.586;2023-03-01T07:25:35;62930.38;;;6.42;100.00
7832;BME280;3961;42.058;25.586;2023-03-01T07:28:01;62934.16;;;6.43;100.00
7832;BME280;3961;42.058;25.586;2023-03-01T07:30:26;62920.34;;;6.30;100.00
7832;BME280;3961;42.058;25.586;2023-03-01T07:32:54;62906.78;;;6.21;100.00
7832;BME280;3961;42.058;25.586;2023-03-01T07:35:22;62976.00;;;6.84;100.00
7832;BME280;3961;42.058;25.586;2023-03-01T07:37:47;63004.28;;;7.04;100.00
7832;BME280;3961;42.058;25.586;2023-03-01T07:40:13;63069.88;;;7.62;100.00
7832;BME280;3961;42.058;25.586;2023-03-01T07:42:39;63082.31;;;7.71;100.00
7832;BME280;3961;42.058;25.586;2023-03-01T07:45:05;63120.78;;;8.09;100.00
7832;BME280;3961;42.058;25.586;2023-03-01T07:47:31;63148.19;;;8.31;100.00
7832;BME280;3961;42.058;25.586;2023-03-01T07:49:57;63198.91;;;8.76;100.00
7832;BME280;3961;42.058;25.586;2023-03-01T07:52:22;63047.09;;;7.45;100.00
7832;BME280;3961;42.058;25.586;2023-03-01T07:54:48;62994.16;;;6.98;100.00
7832;BME280;3961;42.058;25.586;2023-03-01T07:57:14;62948.75;;;6.58;100.00
7832;BME280;3961;42.058;25.586;2023-03-01T07:59:39;62950.31;;;6.52;100.00
7832;BME280;3961;42.058;25.586;2023-03-01T08:02:05;62941.63;;;6.49;100.00
7832;BME280;3961;42.058;25.586;2023-03-01T08:04:31;62927.50;;;6.39;100.00
7832;BME280;3961;42.058;25.586;2023-03-01T08:06:58;62921.25;;;6.29;100.00
7832;BME280;3961;42.058;25.586;2023-03-01T08:09:24;62896.22;;;6.09;100.00
7832;BME280;3961;42.058;25.586;2023-03-01T08:11:50;62926.34;;;6.38;100.00
7832;BME280;3961;42.058;25.586;2023-03-01T08:14:16;62924.69;;;6.32;100.00
7832;BME280;3961;42.058;25.586;2023-03-01T08:16:41;62916.91;;;6.27;100.00
7832;BME280;3961;42.058;25.586;2023-03-01T08:19:09;62912.28;;;6.23;100.00
7832;BME280;3961;42.058;25.586;2023-03-01T08:21:36;62905.97;;;6.18;100.00
7832;BME280;3961;42.058;25.586;2023-03-01T08:24:03;62910.00;;;6.21;100.00
7832;BME280;3961;42.058;25.586;2023-03-01T08:26:30;62897.84;;;6.15;100.00
7832;BME280;3961;42.058;25.586;2023-03-01T08:28:56;63101.88;;;7.88;100.00
7832;BME280;3961;42.058;25.586;2023-03-01T08:31:27;63008.31;;;7.08;100.00
7832;BME280;3961;42.058;25.586;2023-03-01T08:33:57;62986.44;;;6.89;100.00
7832;BME280;3961;42.058;25.586;2023-03-01T08:36:25;62962.31;;;6.67;100.00
7832;BME280;3961;42.058;25.586;2023-03-01T08:38:51;62948.84;;;6.53;100.00
7832;BME280;3961;42.058;25.586;2023-03-01T08:41:17;62945.28;;;6.55;100.00
7832;BME280;3961;42.058;25.586;2023-03-01T08:43:42;62921.16;;;6.33;100.00
7832;BME280;3961;42.058;25.586;2023-03-01T08:46:08;62937.03;;;6.45;100.00
7832;BME280;3961;42.058;25.586;2023-03-01T08:48:33;62943.91;;;6.51;100.00
7832;BME280;3961;42.058;25.586;2023-03-01T08:53:38;62939.91;;;6.48;100.00
7832;BME280;3961;42.058;25.586;2023-03-01T08:56:04;62927.25;;;6.36;100.00
7832;BME280;3961;42.058;25.586;2023-03-01T08:58:31;62933.25;;;6.44;100.00
7832;BME280;3961;42.058;25.586;2023-03-01T09:00:57;62947.03;;;6.56;100.00
7832;BME280;3961;42.058;25.586;2023-03-01T09:03:24;62957.03;;;6.67;100.00
7832;BME280;3961;42.058;25.586;2023-03-01T09:05:50;62949.66;;;6.56;100.00
7832;BME280;3961;42.058;25.586;2023-03-01T09:08:17;62932.00;;;6.48;100.00
7832;BME280;3961;42.058;25.586;2023-03-01T09:10:42;62955.75;;;6.59;100.00
7832;BME280;3961;42.058;25.586;2023-03-01T09:13:08;62931.84;;;6.40;100.00
7832;BME280;3961;42.058;25.586;2023-03-01T09:15:36;62942.19;;;6.50;100.00
7832;BME280;3961;42.058;25.586;2023-03-01T09:18:02;62943.31;;;6.51;100.00
7832;BME280;3961;42.058;25.586;2023-03-01T09:20:28;62946.88;;;6.49;100.00
7832;BME280;3961;42.058;25.586;2023-03-01T09:22:56;62933.25;;;6.44;100.00
7832;BME280;3961;42.058;25.586;2023-03-01T09:25:21;62919.19;;;6.29;100.00
7832;BME280;3961;42.058;25.586;2023-03-01T09:27:51;62926.34;;;6.38;100.00
7832;BME280;3961;42.058;25.586;2023-03-01T09:30:17;62924.03;;;6.36;100.00
7832;BME280;3961;42.058;25.586;2023-03-01T09:32:42;62929.31;;;6.36;100.00
7832;BME280;3961;42.058;25.586;2023-03-01T09:35:10;62914.84;;;6.28;100.00
7832;BME280;3961;42.058;25.586;2023-03-01T09:37:37;62928.16;;;6.35;100.00
7832;BME280;3961;42.058;25.586;2023-03-01T09:40:06;62936.78;;;6.43;100.00
7832;BME280;3961;42.058;25.586;2023-03-01T09:42:34;62939.66;;;6.45;100.00
7832;BME280;3961;42.058;25.586;2023-03-01T09:45:06;62937.59;;;6.46;100.00
7832;BME280;3961;42.058;25.586;2023-03-01T09:47:36;62939.91;;;6.48;100.00
7832;BME280;3961;42.058;25.586;2023-03-01T09:50:09;62941.03;;;6.49;100.00
7832;BME280;3961;42.058;25.586;2023-03-01T09:55:43;62953.34;;;6.62;100.00
7832;BME280;3961;42.058;25.586;2023-03-01T10:01:29;62956.56;;;6.62;100.00
7832;BME280;3961;42.058;25.586;2023-03-01T10:06:59;62962.06;;;6.65;100.00
7832;BME280;3961;42.058;25.586;2023-03-01T10:09:29;62948.50;;;6.55;100.00
7832;BME280;3961;42.058;25.586;2023-03-01T10:11:57;62957.72;;;6.63;100.00
7832;BME280;3961;42.058;25.586;2023-03-01T10:17:02;62979.22;;;6.85;100.00
7832;BME280;3961;42.058;25.586;2023-03-01T10:19:46;62970.59;;;6.77;100.00
7832;BME280;3961;42.058;25.586;2023-03-01T10:22:20;62962.88;;;6.68;100.00
7832;BME280;3961;42.058;25.586;2023-03-01T10:24:50;62979.78;;;6.85;100.00
7832;BME280;3961;42.058;25.586;2023-03-01T10:32:14;62973.47;;;6.80;100.00
7832;BME280;3961;42.058;25.586;2023-03-01T10:34:40;62970.59;;;6.77;100.00
7832;BME280;3961;42.058;25.586;2023-03-01T10:37:13;62925.28;;;6.32;100.00
7832;BME280;3961;42.058;25.586;2023-03-01T10:39:58;62968.63;;;6.73;100.00
7832;BME280;3961;42.058;25.586;2023-03-01T10:42:37;62981.84;;;6.85;100.00
7832;BME280;3961;42.058;25.586;2023-03-01T10:50:36;62977.28;;;6.81;100.00
7832;BME280;3961;42.058;25.586;2023-03-01T10:53:04;62965.44;;;6.72;100.00
7832;BME280;3961;42.058;25.586;2023-03-01T10:55:34;62955.66;;;6.64;100.00
7832;BME280;3961;42.058;25.586;2023-03-01T10:58:18;62975.53;;;6.79;100.00
7832;BME280;3961;42.058;25.586;2023-03-01T11:00:51;62965.19;;;6.70;100.00
7832;BME280;3961;42.058;25.586;2023-03-01T11:03:22;62989.22;;;6.96;100.00
7832;BME280;3961;42.058;25.586;2023-03-01T11:06:37;62991.63;;;6.93;100.00
7832;BME280;3961;42.058;25.586;2023-03-01T11:11:28;63011.19;;;7.11;100.00
7832;BME280;3961;42.058;25.586;2023-03-01T11:16:45;63002.81;;;7.05;100.00
7832;BME280;3961;42.058;25.586;2023-03-01T11:22:07;63002.81;;;7.05;100.00
7832;BME280;3961;42.058;25.586;2023-03-01T11:24:45;63007.66;;;7.12;100.00
7832;BME280;3961;42.058;25.586;2023-03-01T11:29:46;63032.81;;;7.27;100.00
7832;BME280;3961;42.058;25.586;2023-03-01T11:32:17;62999.09;;;7.00;100.00
7832;BME280;3961;42.058;25.586;2023-03-01T11:34:56;63009.72;;;7.12;100.00
7832;BME280;3961;42.058;25.586;2023-03-01T11:37:33;63003.72;;;7.04;100.00
7832;BME280;3961;42.058;25.586;2023-03-01T11:51:05;63039.63;;;7.38;100.00
7832;BME280;3961;42.058;25.586;2023-03-01T11:53:42;63038.47;;;7.37;100.00
7832;BME280;3961;42.058;25.586;2023-03-01T11:56:29;63031.91;;;7.29;100.00
7832;BME280;3961;42.058;25.586;2023-03-01T12:45:48;63006.00;;;7.06;100.00
7832;BME280;3961;42.058;25.586;2023-03-01T12:50:50;62997.28;;;7.03;100.00
7832;BME280;3961;42.058;25.586;2023-03-01T12:53:30;63004.28;;;7.04;100.00
7832;BME280;3961;42.058;25.586;2023-03-01T12:56:10;62983.34;;;6.84;100.00
7832;BME280;3961;42.058;25.586;2023-03-01T13:06:50;63000.50;;;7.03;100.00
7832;BME280;3961;42.058;25.586;2023-03-01T13:11:48;63000.75;;;7.06;100.00
7832;BME280;3961;42.058;25.586;2023-03-01T13:16:46;62995.31;;;6.99;100.00
7832;BME280;3961;42.058;25.586;2023-03-01T13:19:19;62999.69;;;7.00;100.00
7832;BME280;3961;42.058;25.586;2023-03-01T13:21:47;62995.00;;;7.01;100.00
7832;BME280;3961;42.058;25.586;2023-03-01T13:24:43;62990.47;;;6.92;100.00
7832;BME280;3961;42.058;25.586;2023-03-01T13:27:11;62988.19;;;6.90;100.00
7832;BME280;3961;42.058;25.586;2023-03-01T13:29:53;62988.50;;;6.88;100.00
7832;BME280;3961;42.058;25.586;2023-03-01T13:34:51;62994.16;;;6.98;100.00
7832;BME280;3961;42.058;25.586;2023-03-01T13:37:25;63002.56;;;7.03;100.00
7832;BME280;3961;42.058;25.586;2023-03-01T13:39:52;62991.88;;;6.96;100.00
7832;BME280;3961;42.058;25.586;2023-03-01T13:42:39;63004.88;;;7.05;100.00
7832;BME280;3961;42.058;25.586;2023-03-01T13:45:15;63000.75;;;7.06;100.00
7832;BME280;3961;42.058;25.586;2023-03-01T13:47:43;63009.72;;;7.12;100.00
7832;BME280;3961;42.058;25.586;2023-03-01T13:50:18;62995.66;;;6.97;100.00
7832;BME280;3961;42.058;25.586;2023-03-01T13:52:52;62987.25;;;6.92;100.00
7832;BME280;3961;42.058;25.586;2023-03-01T13:55:23;62993.59;;;6.97;100.00
7832;BME280;3961;42.058;25.586;2023-03-01T13:57:59;63007.97;;;7.10;100.00
7832;BME280;3961;42.058;25.586;2023-03-01T14:00:29;62998.44;;;7.04;100.00
7832;BME280;3961;42.058;25.586;2023-03-01T14:03:16;62979.22;;;6.85;100.00
7832;BME280;3961;42.058;25.586;2023-03-01T14:08:35;62999.94;;;7.03;100.00
7832;BME280;3961;42.058;25.586;2023-03-01T14:14:02;63008.91;;;7.08;100.00
7832;BME280;3961;42.058;25.586;2023-03-01T14:16:42;63014.41;;;7.11;100.00
7832;BME280;3961;42.058;25.586;2023-03-01T14:21:39;63014.66;;;7.14;100.00
7832;BME280;3961;42.058;25.586;2023-03-01T14:24:05;63017.88;;;7.14;100.00
7832;BME280;3961;42.058;25.586;2023-03-01T14:26:33;63016.34;;;7.15;100.00
7832;BME280;3961;42.058;25.586;2023-03-01T14:29:01;63001.06;;;7.04;100.00
7832;BME280;3961;42.058;25.586;2023-03-01T14:33:58;63004.28;;;7.04;100.00
7832;BME280;3961;42.058;25.586;2023-03-01T14:36:29;62989.91;;;6.92;100.00
7832;BME280;3961;42.058;25.586;2023-03-01T14:38:55;62983.00;;;6.86;100.00
7832;BME280;3961;42.058;25.586;2023-03-01T14:41:25;62977.59;;;6.79;100.00
7832;BME280;3961;42.058;25.586;2023-03-01T14:44:03;62979.78;;;6.85;100.00
7832;BME280;3961;42.058;25.586;2023-03-01T14:46:34;62978.63;;;6.84;100.00
7832;BME280;3961;42.058;25.586;2023-03-01T14:49:05;62995.66;;;6.97;100.00
7832;BME280;3961;42.058;25.586;2023-03-01T14:51:37;63000.50;;;7.03;100.00
7832;BME280;3961;42.058;25.586;2023-03-01T14:54:11;62998.53;;;6.99;100.00
7832;BME280;3961;42.058;25.586;2023-03-01T14:56:45;63003.38;;;7.06;100.00
7832;BME280;3961;42.058;25.586;2023-03-01T14:59:11;62991.06;;;6.93;100.00
7832;BME280;3961;42.058;25.586;2023-03-01T15:01:37;62978.31;;;6.86;100.00
7832;BME280;3961;42.058;25.586;2023-03-01T15:04:02;62997.13;;;6.96;100.00
7832;BME280;3961;42.058;25.586;2023-03-01T15:06:28;63007.16;;;7.07;100.00
7832;BME280;3961;42.058;25.586;2023-03-01T15:08:55;63013.50;;;7.13;100.00
7832;BME280;3961;42.058;25.586;2023-03-01T15:11:29;62982.66;;;6.88;100.00
7832;BME280;3961;42.058;25.586;2023-03-01T15:13:56;62997.38;;;6.98;100.00
7832;BME280;3961;42.058;25.586;2023-03-01T15:16:27;62995.66;;;6.97;100.00
7832;BME280;3961;42.058;25.586;2023-03-01T15:18:57;63002.00;;;7.02;100.00
7832;BME280;3961;42.058;25.586;2023-03-01T15:21:30;62989.56;;;6.94;100.00
7832;BME280;3961;42.058;25.586;2023-03-01T15:24:17;62936.13;;;6.47;100.00
7832;BME280;3961;42.058;25.586;2023-03-01T15:29:22;62981.84;;;6.85;100.00
7832;BME280;3961;42.058;25.586;2023-03-01T15:32:01;62973.47;;;6.80;100.00
7832;BME280;3961;42.058;25.586;2023-03-01T15:34:38;62965.44;;;6.72;100.00
7832;BME280;3961;42.058;25.586;2023-03-01T15:37:05;62951.94;;;6.58;100.00
7832;BME280;3961;42.058;25.586;2023-03-01T15:39:52;62964.75;;;6.77;100.00